createdAt,value
2019-03-13T00:01:24.270Z,5.30
2019-03-13T00:03:51.599Z,4.67
2019-03-13T00:06:18.898Z,5.10
2019-03-13T00:08:46.226Z,5.10
2019-03-13T00:11:13.534Z,5.30
2019-03-13T00:13:40.839Z,4.83
2019-03-13T00:16:08.171Z,5.10
2019-03-13T00:18:35.507Z,5.05
2019-03-13T00:21:02.809Z,5.05
2019-03-13T00:23:30.119Z,4.90
2019-03-13T00:25:57.462Z,4.70
2019-03-13T00:28:24.749Z,4.83
2019-03-13T00:30:52.118Z,4.60
2019-03-13T00:33:19.452Z,5.05
2019-03-13T00:35:46.765Z,4.85
2019-03-13T00:38:14.073Z,4.90
2019-03-13T00:40:41.408Z,4.50
2019-03-13T00:43:08.710Z,4.40
2019-03-13T00:45:36.108Z,4.80
2019-03-13T00:48:03.423Z,5.20
2019-03-13T00:50:31.514Z,4.83
2019-03-13T00:52:58.810Z,4.90
2019-03-13T00:55:26.148Z,4.40
2019-03-13T00:57:53.459Z,4.30
2019-03-13T01:00:38.354Z,4.50
2019-03-13T01:03:07.303Z,3.90
2019-03-13T01:05:36.237Z,4.40
2019-03-13T01:08:03.568Z,4.40
2019-03-13T01:10:30.899Z,4.60
2019-03-13T01:12:58.198Z,4.22
2019-03-13T01:15:25.573Z,4.03
2019-03-13T01:17:52.907Z,4.60
2019-03-13T01:20:20.245Z,4.30
2019-03-13T01:22:47.546Z,4.42
2019-03-13T01:25:14.851Z,4.40
2019-03-13T01:27:42.181Z,4.15
2019-03-13T01:30:11.159Z,4.83
2019-03-13T01:32:54.944Z,4.65
2019-03-13T01:35:32.619Z,4.45
2019-03-13T01:37:59.950Z,4.53
2019-03-13T01:40:27.246Z,3.95
2019-03-13T01:42:54.556Z,4.35
2019-03-13T01:45:21.889Z,4.00
2019-03-13T01:47:49.224Z,4.17
2019-03-13T01:50:16.525Z,4.12
2019-03-13T01:52:43.867Z,5.10
2019-03-13T01:55:11.184Z,4.30
2019-03-13T01:57:38.488Z,4.60
2019-03-13T02:00:07.467Z,5.33
2019-03-13T02:02:34.869Z,4.95
2019-03-13T02:05:02.194Z,4.60
2019-03-13T02:07:29.522Z,4.90
2019-03-13T02:09:56.835Z,4.10
2019-03-13T02:12:24.135Z,4.12
2019-03-13T02:14:51.463Z,4.72
2019-03-13T02:17:18.760Z,4.75
2019-03-13T02:19:46.061Z,5.17
2019-03-13T02:22:13.402Z,4.80
2019-03-13T02:24:40.845Z,5.85
2019-03-13T02:27:08.149Z,4.90
2019-03-13T02:29:35.474Z,4.65
2019-03-13T02:32:02.782Z,4.78
2019-03-13T02:34:30.111Z,5.05
2019-03-13T02:36:57.436Z,4.60
2019-03-13T02:39:24.743Z,5.12
2019-03-13T02:41:52.076Z,4.90
2019-03-13T02:44:19.384Z,4.90
2019-03-13T02:46:46.760Z,5.17
2019-03-13T02:49:14.071Z,4.75
2019-03-13T02:51:41.380Z,4.80
2019-03-13T02:54:08.679Z,5.20
2019-03-13T02:56:35.992Z,5.00
2019-03-13T02:59:03.320Z,4.70
2019-03-13T03:01:32.278Z,4.70
2019-03-13T03:04:01.244Z,4.67
2019-03-13T03:06:28.535Z,4.95
2019-03-13T03:08:55.907Z,4.97
2019-03-13T03:11:23.179Z,4.75
2019-03-13T03:13:50.481Z,5.03
2019-03-13T03:16:17.804Z,4.80
2019-03-13T03:18:45.119Z,4.65
2019-03-13T03:21:12.419Z,4.85
2019-03-13T03:23:39.753Z,5.08
2019-03-13T03:26:07.044Z,4.97
2019-03-13T03:28:34.345Z,5.28
2019-03-13T03:31:01.679Z,5.40
2019-03-13T03:33:28.976Z,4.95
2019-03-13T03:35:56.314Z,5.20
2019-03-13T03:38:23.658Z,5.50
2019-03-13T03:40:50.976Z,5.58
2019-03-13T03:43:18.280Z,5.67
2019-03-13T03:45:45.610Z,5.20
2019-03-13T03:48:12.911Z,5.50
2019-03-13T03:50:40.224Z,5.15
2019-03-13T03:53:07.561Z,5.45
2019-03-13T03:55:34.867Z,5.72
2019-03-13T03:58:02.252Z,5.47
2019-03-13T04:00:29.559Z,5.75
2019-03-13T04:02:56.890Z,5.80
2019-03-13T04:05:24.191Z,5.55
2019-03-13T04:07:51.533Z,5.37
2019-03-13T04:10:18.840Z,5.75
2019-03-13T04:12:46.148Z,5.67
2019-03-13T04:15:13.964Z,5.12
2019-03-13T04:17:41.262Z,6.00
2019-03-13T04:20:11.950Z,6.10
2019-03-13T04:22:39.293Z,6.17
2019-03-13T04:25:10.652Z,5.55
2019-03-13T04:27:37.971Z,5.50
2019-03-13T04:30:06.846Z,6.33
2019-03-13T04:32:34.180Z,5.90
2019-03-13T04:35:01.480Z,6.00
2019-03-13T04:37:28.807Z,5.97
2019-03-13T04:39:56.137Z,5.72
2019-03-13T04:42:23.420Z,6.10
2019-03-13T04:44:50.759Z,5.10
2019-03-13T04:47:18.054Z,5.60
2019-03-13T04:49:45.387Z,6.17
2019-03-13T04:52:12.685Z,5.75
2019-03-13T04:54:40.022Z,5.95
2019-03-13T04:57:07.330Z,5.83
2019-03-13T04:59:34.667Z,6.00
2019-03-13T05:02:01.976Z,5.95
2019-03-13T05:04:29.283Z,6.08
2019-03-13T05:06:56.612Z,5.85
2019-03-13T05:09:25.564Z,5.85
2019-03-13T05:11:52.887Z,6.00
2019-03-13T05:14:20.196Z,5.90
2019-03-13T05:16:47.524Z,5.70
2019-03-13T05:19:14.826Z,5.72
2019-03-13T05:21:42.157Z,5.55
2019-03-13T05:24:09.467Z,5.65
2019-03-13T05:26:36.776Z,5.78
2019-03-13T05:29:04.112Z,5.92
2019-03-13T05:31:31.403Z,5.62
2019-03-13T05:33:58.739Z,5.90
2019-03-13T05:36:26.050Z,6.05
2019-03-13T05:38:53.370Z,5.80
2019-03-13T05:41:20.725Z,5.72
2019-03-13T05:43:48.031Z,5.70
2019-03-13T05:46:15.337Z,5.85
2019-03-13T05:48:42.659Z,6.20
2019-03-13T05:51:10.003Z,6.05
2019-03-13T05:53:37.316Z,5.80
2019-03-13T05:56:04.615Z,5.67
2019-03-13T05:58:31.948Z,5.83
2019-03-13T06:00:59.337Z,5.67
2019-03-13T06:03:26.664Z,5.65
2019-03-13T06:05:53.967Z,5.28
2019-03-13T06:08:21.300Z,5.60
2019-03-13T06:10:48.623Z,5.67
2019-03-13T06:13:15.936Z,5.33
2019-03-13T06:15:43.320Z,4.70
2019-03-13T06:18:10.649Z,5.40
2019-03-13T06:20:37.947Z,5.80
2019-03-13T06:23:05.251Z,5.85
2019-03-13T06:25:32.607Z,5.55
2019-03-13T06:27:59.878Z,6.28
2019-03-13T06:30:27.183Z,6.15
2019-03-13T06:32:54.517Z,5.60
2019-03-13T06:35:23.838Z,5.72
2019-03-13T06:37:50.779Z,6.28
2019-03-13T06:40:18.754Z,6.65
2019-03-13T06:42:46.110Z,5.95
2019-03-13T06:45:14.181Z,6.50
2019-03-13T06:47:41.498Z,6.08
2019-03-13T06:50:10.437Z,6.30
2019-03-13T06:52:37.746Z,6.45
2019-03-13T06:55:05.313Z,6.30
2019-03-13T06:57:32.664Z,6.67
2019-03-13T07:00:04.200Z,6.60
2019-03-13T07:02:33.156Z,5.92
2019-03-13T07:05:02.115Z,6.55
2019-03-13T07:07:42.972Z,6.15
2019-03-13T07:10:30.100Z,6.08
2019-03-13T07:13:14.190Z,6.25
2019-03-13T07:15:55.074Z,6.40
2019-03-13T07:18:24.067Z,6.58
2019-03-13T07:20:59.049Z,7.47
2019-03-13T07:23:30.906Z,6.33
2019-03-13T07:26:02.809Z,6.97
2019-03-13T07:28:43.383Z,6.67
2019-03-13T07:31:15.291Z,6.60
2019-03-13T07:33:50.218Z,7.03
2019-03-13T07:36:27.861Z,7.30
2019-03-13T07:39:02.267Z,7.12
2019-03-13T07:41:43.281Z,6.58
2019-03-13T07:44:30.363Z,5.97
2019-03-13T07:47:07.899Z,7.12
2019-03-13T07:49:52.917Z,6.80
2019-03-13T07:52:38.053Z,6.70
2019-03-13T07:55:07.466Z,6.92
2019-03-13T07:57:48.202Z,7.50
2019-03-13T08:00:17.148Z,6.30
2019-03-13T08:02:55.223Z,7.47
2019-03-13T08:05:30.210Z,6.90
2019-03-13T08:08:08.059Z,6.65
2019-03-13T08:10:36.979Z,6.12
2019-03-13T08:13:14.731Z,6.85
2019-03-13T08:15:58.501Z,6.55
2019-03-13T08:18:30.218Z,5.75
2019-03-13T08:20:59.207Z,5.95
2019-03-13T08:23:43.033Z,5.85
2019-03-13T08:26:21.081Z,5.78
2019-03-13T08:28:55.835Z,5.67
2019-03-13T08:31:24.807Z,4.85
2019-03-13T08:33:59.686Z,5.17
2019-03-13T08:36:43.517Z,5.85
2019-03-13T08:39:21.315Z,5.08
2019-03-13T08:42:05.156Z,5.20
2019-03-13T08:44:39.884Z,5.35
2019-03-13T08:47:08.884Z,5.67
2019-03-13T08:49:37.827Z,5.60
2019-03-13T08:52:18.826Z,4.90
2019-03-13T08:54:47.777Z,5.05
2019-03-13T08:57:19.660Z,5.10
2019-03-13T08:59:57.465Z,4.60
2019-03-13T09:02:37.922Z,4.45
2019-03-13T09:05:13.077Z,5.53
2019-03-13T09:07:47.683Z,5.00
2019-03-13T09:10:34.765Z,5.10
2019-03-13T09:13:18.892Z,4.72
2019-03-13T09:16:02.752Z,5.25
2019-03-13T09:18:34.226Z,4.60
2019-03-13T09:21:03.198Z,5.10
2019-03-13T09:23:49.988Z,5.17
2019-03-13T09:26:21.523Z,5.10
2019-03-13T09:29:08.053Z,5.45
2019-03-13T09:31:45.858Z,4.50
2019-03-13T09:34:23.763Z,5.10
2019-03-13T09:36:55.520Z,5.10
2019-03-13T09:39:40.840Z,4.28
2019-03-13T09:42:09.811Z,4.50
2019-03-13T09:44:38.771Z,5.40
2019-03-13T09:47:19.780Z,4.97
2019-03-13T09:49:48.738Z,5.03
2019-03-13T09:52:17.687Z,5.50
2019-03-13T09:55:04.357Z,4.55
2019-03-13T09:57:34.759Z,4.40
2019-03-13T10:00:12.705Z,5.10
2019-03-13T10:02:47.334Z,4.45
2019-03-13T10:05:16.311Z,4.33
2019-03-13T10:07:48.078Z,3.92
2019-03-13T10:10:22.749Z,4.05
2019-03-13T10:13:03.528Z,4.00
2019-03-13T10:15:32.528Z,4.42
2019-03-13T10:18:01.466Z,4.20
2019-03-13T10:20:36.269Z,4.62
2019-03-13T10:23:05.206Z,4.60
2019-03-13T10:25:37.173Z,4.50
2019-03-13T10:28:15.211Z,4.25
2019-03-13T10:30:44.160Z,4.50
2019-03-13T10:33:27.946Z,4.50
2019-03-13T10:35:56.887Z,4.12
2019-03-13T10:38:37.994Z,4.62
2019-03-13T10:41:12.815Z,4.58
2019-03-13T10:43:41.805Z,4.30
2019-03-13T10:46:10.756Z,4.72
2019-03-13T10:48:48.591Z,5.92
2019-03-13T10:51:20.283Z,5.83
2019-03-13T10:53:49.251Z,6.12
2019-03-13T10:56:34.506Z,6.45
2019-03-13T10:59:06.561Z,6.40
2019-03-13T11:01:41.480Z,5.97
2019-03-13T11:04:13.105Z,6.10
2019-03-13T11:06:58.106Z,6.60
2019-03-13T11:09:32.915Z,5.95
2019-03-13T11:12:01.852Z,5.30
2019-03-13T11:14:46.930Z,6.33
2019-03-13T11:17:15.887Z,5.70
2019-03-13T11:19:53.803Z,5.75
2019-03-13T11:22:37.438Z,5.33
2019-03-13T11:25:09.940Z,5.67
2019-03-13T11:27:38.912Z,5.85
2019-03-13T11:30:11.973Z,5.87
2019-03-13T11:32:52.935Z,4.83
2019-03-13T11:35:30.848Z,5.35
2019-03-13T11:38:15.916Z,5.08
2019-03-13T11:40:44.864Z,4.60
2019-03-13T11:43:19.802Z,4.90
2019-03-13T11:45:48.783Z,4.25
2019-03-13T11:48:17.727Z,4.72
2019-03-13T11:51:01.588Z,4.80
2019-03-13T11:53:45.644Z,5.50
2019-03-13T11:56:14.591Z,5.05
2019-03-13T11:58:43.536Z,4.87
2019-03-13T12:01:17.484Z,4.78
2019-03-13T12:03:57.885Z,4.60
2019-03-13T12:06:29.537Z,4.35
2019-03-13T12:09:01.456Z,4.15
2019-03-13T12:11:45.503Z,4.22
2019-03-13T12:14:14.456Z,5.00
2019-03-13T12:16:46.176Z,4.40
2019-03-13T12:19:18.132Z,5.15
2019-03-13T12:21:47.103Z,4.30
2019-03-13T12:24:32.023Z,5.08
2019-03-13T12:27:01.000Z,4.35
2019-03-13T12:29:29.943Z,4.65
2019-03-13T12:31:58.881Z,4.47
2019-03-13T12:34:44.389Z,4.45
2019-03-13T12:37:13.333Z,4.78
2019-03-13T12:39:44.947Z,2.80
2019-03-13T12:42:16.601Z,2.83
2019-03-13T12:44:48.247Z,3.35
2019-03-13T12:47:17.221Z,1.90
2019-03-13T12:49:49.183Z,2.87
2019-03-13T12:52:18.129Z,2.02
2019-03-13T12:54:50.023Z,1.80
2019-03-13T12:57:24.994Z,2.08
2019-03-13T12:59:59.795Z,2.20
2019-03-13T13:02:28.738Z,2.95
2019-03-13T13:05:13.647Z,2.58
2019-03-13T13:07:48.686Z,3.02
2019-03-13T13:10:17.650Z,2.75
2019-03-13T13:12:58.682Z,2.40
2019-03-13T13:15:27.652Z,2.37
2019-03-13T13:18:12.720Z,2.67
2019-03-13T13:20:40.057Z,2.70
2019-03-13T13:23:07.426Z,3.50
2019-03-13T13:25:34.723Z,3.98
2019-03-13T13:28:02.044Z,4.55
2019-03-13T13:30:29.406Z,4.20
2019-03-13T13:32:56.709Z,4.10
2019-03-13T13:35:24.055Z,3.85
2019-03-13T13:37:51.374Z,4.15
2019-03-13T13:40:18.684Z,3.80
2019-03-13T13:42:46.251Z,4.72
2019-03-13T13:45:32.822Z,5.03
2019-03-13T13:47:59.031Z,4.10
2019-03-13T13:50:26.350Z,5.10
2019-03-13T13:52:53.692Z,5.28
2019-03-13T13:55:20.996Z,3.67
2019-03-13T13:57:48.302Z,3.40
2019-03-13T14:00:15.666Z,3.90
2019-03-13T14:02:42.976Z,3.40
2019-03-13T14:05:10.285Z,3.50
2019-03-13T14:07:37.604Z,4.33
2019-03-13T14:10:05.916Z,3.17
2019-03-13T14:12:33.218Z,3.12
2019-03-13T14:15:00.561Z,3.40
2019-03-13T14:17:27.876Z,3.00
2019-03-13T14:19:55.213Z,3.30
2019-03-13T14:22:22.514Z,3.47
2019-03-13T14:24:49.850Z,3.50
2019-03-13T14:27:17.161Z,3.67
2019-03-13T14:29:46.978Z,3.80
2019-03-13T14:32:13.442Z,3.65
2019-03-13T14:34:40.745Z,4.55
2019-03-13T14:37:08.076Z,4.30
2019-03-13T14:39:35.382Z,4.15
2019-03-13T14:42:02.712Z,4.25
2019-03-13T14:44:30.018Z,4.15
2019-03-13T14:46:57.342Z,4.17
2019-03-13T14:49:24.657Z,4.20
2019-03-13T14:51:51.962Z,4.65
2019-03-13T14:54:19.282Z,4.45
2019-03-13T14:56:46.581Z,4.00
2019-03-13T14:59:13.897Z,4.35
2019-03-13T15:01:41.227Z,3.83
2019-03-13T15:04:08.555Z,4.80
2019-03-13T15:06:38.615Z,4.30
2019-03-13T15:09:05.188Z,4.58
2019-03-13T15:11:32.516Z,4.40
2019-03-13T15:13:59.819Z,5.40
2019-03-13T15:16:27.156Z,4.55
2019-03-13T15:18:54.462Z,4.70
2019-03-13T15:21:21.799Z,4.62
2019-03-13T15:23:49.109Z,4.50
2019-03-13T15:26:16.414Z,4.60
2019-03-13T15:28:43.754Z,4.53
2019-03-13T15:31:11.064Z,4.53
2019-03-13T15:33:38.404Z,4.17
2019-03-13T15:36:05.700Z,4.55
2019-03-13T15:38:33.012Z,4.47
2019-03-13T15:41:00.343Z,4.28
2019-03-13T15:43:27.658Z,4.22
2019-03-13T15:45:54.959Z,4.25
2019-03-13T15:48:22.295Z,4.53
2019-03-13T15:50:49.601Z,4.65
2019-03-13T15:53:16.903Z,4.65
2019-03-13T15:55:44.244Z,4.53
2019-03-13T15:58:11.552Z,4.37
2019-03-13T16:00:38.879Z,4.55
2019-03-13T16:03:06.185Z,5.00
2019-03-13T16:05:33.518Z,4.87
2019-03-13T16:08:00.833Z,4.83
2019-03-13T16:10:28.143Z,4.25
2019-03-13T16:12:57.111Z,4.60
2019-03-13T16:15:31.979Z,5.40
2019-03-13T16:17:59.314Z,4.55
2019-03-13T16:20:26.628Z,4.87
2019-03-13T16:22:55.571Z,5.17
2019-03-13T16:25:22.904Z,5.50
2019-03-13T16:27:50.214Z,6.17
2019-03-13T16:30:22.763Z,5.78
2019-03-13T16:32:50.131Z,6.50
2019-03-13T16:35:17.439Z,6.42
2019-03-13T16:37:44.774Z,5.72
2019-03-13T16:40:13.138Z,5.85
2019-03-13T16:42:40.469Z,8.25
2019-03-13T16:45:09.138Z,6.35
2019-03-13T16:47:36.460Z,7.00
2019-03-13T16:50:05.362Z,6.62
2019-03-13T16:52:32.667Z,6.92
2019-03-13T16:55:00.011Z,6.83
2019-03-13T16:57:27.390Z,6.78
2019-03-13T17:00:00.654Z,6.75
2019-03-13T17:02:23.642Z,6.90
2019-03-13T17:04:50.944Z,6.75
2019-03-13T17:07:18.288Z,8.30
2019-03-13T17:09:45.592Z,7.47
2019-03-13T17:12:12.931Z,7.33
2019-03-13T17:14:40.255Z,7.40
2019-03-13T17:17:07.558Z,7.15
2019-03-13T17:19:34.864Z,8.93
2019-03-13T17:22:02.210Z,7.95
2019-03-13T17:24:29.516Z,7.00
2019-03-13T17:26:56.822Z,7.37
2019-03-13T17:29:24.155Z,7.37
2019-03-13T17:31:51.468Z,7.87
2019-03-13T17:34:18.808Z,6.47
2019-03-13T17:36:46.106Z,7.08
2019-03-13T17:39:13.415Z,6.72
2019-03-13T17:41:40.756Z,7.17
2019-03-13T17:44:08.054Z,6.55
2019-03-13T17:46:35.368Z,7.47
2019-03-13T17:49:02.690Z,8.40
2019-03-13T17:51:30.002Z,7.72
2019-03-13T17:53:57.333Z,7.65
2019-03-13T17:56:24.625Z,7.90
2019-03-13T17:58:51.979Z,8.30
2019-03-13T18:01:19.299Z,8.33
2019-03-13T18:03:49.717Z,8.05
2019-03-13T18:06:15.555Z,8.85
2019-03-13T18:08:42.894Z,8.20
2019-03-13T18:11:10.197Z,9.68
2019-03-13T18:13:37.534Z,9.35
2019-03-13T18:16:04.868Z,9.15
2019-03-13T18:18:32.179Z,9.15
2019-03-13T18:20:59.512Z,8.95
2019-03-13T18:23:26.811Z,9.35
2019-03-13T18:25:54.135Z,9.15
2019-03-13T18:28:21.472Z,9.83
2019-03-13T18:30:48.790Z,9.75
2019-03-13T18:33:16.119Z,9.13
2019-03-13T18:35:43.435Z,8.85
2019-03-13T18:38:11.644Z,9.08
2019-03-13T18:40:38.948Z,8.10
2019-03-13T18:43:06.275Z,7.60
2019-03-13T18:45:34.170Z,8.88
2019-03-13T18:48:01.474Z,8.35
2019-03-13T18:50:28.813Z,8.40
2019-03-13T18:52:56.147Z,8.98
2019-03-13T18:55:24.331Z,8.28
2019-03-13T18:57:51.643Z,8.65
2019-03-13T19:00:20.043Z,9.38
2019-03-13T19:02:47.352Z,9.83
2019-03-13T19:05:14.759Z,9.83
2019-03-13T19:07:42.063Z,9.33
2019-03-13T19:10:10.858Z,8.78
2019-03-13T19:12:38.203Z,10.85
2019-03-13T19:15:07.283Z,9.70
2019-03-13T19:17:34.615Z,9.00
2019-03-13T19:20:01.932Z,9.78
2019-03-13T19:22:29.230Z,8.03
2019-03-13T19:24:56.559Z,8.95
2019-03-13T19:27:25.878Z,7.70
2019-03-13T19:29:52.863Z,7.75
2019-03-13T19:32:20.169Z,8.00
2019-03-13T19:34:47.483Z,8.63
2019-03-13T19:37:14.810Z,7.70
2019-03-13T19:39:42.119Z,9.50
2019-03-13T19:42:09.458Z,8.25
2019-03-13T19:44:36.753Z,8.13
2019-03-13T19:47:04.063Z,8.85
2019-03-13T19:49:31.398Z,8.38
2019-03-13T19:51:58.708Z,8.83
2019-03-13T19:54:26.026Z,8.35
2019-03-13T19:56:53.351Z,8.00
2019-03-13T19:59:20.663Z,9.20
2019-03-13T20:01:49.200Z,8.00
2019-03-13T20:04:16.585Z,6.72
2019-03-13T20:06:43.887Z,7.22
2019-03-13T20:09:11.200Z,7.78
2019-03-13T20:11:38.527Z,8.78
2019-03-13T20:14:05.844Z,7.30
2019-03-13T20:16:33.178Z,6.90
2019-03-13T20:19:00.478Z,7.42
2019-03-13T20:21:30.947Z,8.70
2019-03-13T20:23:56.769Z,8.45
2019-03-13T20:26:24.070Z,8.90
2019-03-13T20:28:51.413Z,8.88
2019-03-13T20:31:18.720Z,8.25
2019-03-13T20:33:46.030Z,9.35
2019-03-13T20:36:13.414Z,9.23
2019-03-13T20:38:40.722Z,9.48
2019-03-13T20:41:08.043Z,10.35
2019-03-13T20:43:35.399Z,10.13
2019-03-13T20:46:02.694Z,9.88
2019-03-13T20:48:30.003Z,10.93
2019-03-13T20:50:57.330Z,12.30
2019-03-13T20:53:24.662Z,10.95
2019-03-13T20:55:51.975Z,10.70
2019-03-13T20:58:19.374Z,12.65
2019-03-13T21:00:46.674Z,11.95
2019-03-13T21:03:13.977Z,12.13
2019-03-13T21:05:41.364Z,13.10
2019-03-13T21:08:08.716Z,11.85
2019-03-13T21:10:36.007Z,12.50
2019-03-13T21:13:03.339Z,10.75
2019-03-13T21:15:30.657Z,12.53
2019-03-13T21:17:57.996Z,11.18
2019-03-13T21:20:25.309Z,12.03
2019-03-13T21:22:53.082Z,10.93
2019-03-13T21:25:21.025Z,11.00
2019-03-13T21:27:48.404Z,10.25
2019-03-13T21:30:19.534Z,11.20
2019-03-13T21:32:46.918Z,9.70
2019-03-13T21:35:14.234Z,9.90
2019-03-13T21:37:41.540Z,9.45
2019-03-13T21:40:10.148Z,9.20
2019-03-13T21:42:37.456Z,9.65
2019-03-13T21:45:05.094Z,9.20
2019-03-13T21:47:32.411Z,8.60
2019-03-13T21:49:59.711Z,8.55
2019-03-13T21:52:27.027Z,9.30
2019-03-13T21:54:54.426Z,8.48
2019-03-13T21:57:24.518Z,9.83
2019-03-13T21:59:51.828Z,9.70
2019-03-13T22:02:28.385Z,9.50
2019-03-13T22:04:48.121Z,10.35
2019-03-13T22:07:15.421Z,9.45
2019-03-13T22:09:42.745Z,10.45
2019-03-13T22:12:10.055Z,9.45
2019-03-13T22:14:38.523Z,9.65
2019-03-13T22:17:06.099Z,9.18
2019-03-13T22:19:33.509Z,8.48
2019-03-13T22:22:00.849Z,8.15
2019-03-13T22:24:28.151Z,8.80
2019-03-13T22:26:55.510Z,8.58
2019-03-13T22:29:22.830Z,8.10
2019-03-13T22:31:50.130Z,8.28
2019-03-13T22:34:17.440Z,8.05
2019-03-13T22:36:44.777Z,7.22
2019-03-13T22:39:12.116Z,8.13
2019-03-13T22:41:39.511Z,7.92
2019-03-13T22:44:06.827Z,7.62
2019-03-13T22:46:34.160Z,7.90
2019-03-13T22:49:01.538Z,8.50
2019-03-13T22:51:28.842Z,8.20
2019-03-13T22:53:56.184Z,8.50
2019-03-13T22:56:23.491Z,8.33
2019-03-13T22:58:50.808Z,8.20
2019-03-13T23:01:18.210Z,8.05
2019-03-13T23:03:45.541Z,9.08
2019-03-13T23:06:12.852Z,8.85
2019-03-13T23:08:40.159Z,9.15
2019-03-13T23:11:07.505Z,10.05
2019-03-13T23:13:34.877Z,9.73
2019-03-13T23:16:02.312Z,9.75
2019-03-13T23:18:29.635Z,11.55
2019-03-13T23:20:56.951Z,10.98
2019-03-13T23:23:24.299Z,11.57
2019-03-13T23:25:51.608Z,10.90
2019-03-13T23:28:18.916Z,12.47
2019-03-13T23:30:46.247Z,11.70
2019-03-13T23:33:13.588Z,11.50
2019-03-13T23:35:40.900Z,12.58
2019-03-13T23:38:08.264Z,11.97
2019-03-13T23:40:35.578Z,12.80
2019-03-13T23:43:02.890Z,11.57
2019-03-13T23:45:30.241Z,11.35
2019-03-13T23:47:57.574Z,10.55
2019-03-13T23:50:24.900Z,10.88
2019-03-13T23:52:52.236Z,10.85
2019-03-13T23:55:19.550Z,11.63
2019-03-13T23:57:46.849Z,10.18
